createdAt,value
2023-05-05T00:00:23.139Z,4.84
2023-05-05T00:03:26.168Z,4.81
2023-05-05T00:06:31.647Z,4.77
2023-05-05T00:09:33.649Z,4.74
2023-05-05T00:12:36.496Z,4.72
2023-05-05T00:15:38.723Z,4.73
2023-05-05T00:18:40.892Z,4.70
2023-05-05T00:21:42.893Z,4.71
2023-05-05T00:24:44.998Z,4.76
2023-05-05T00:27:47.971Z,4.78
2023-05-05T00:30:50.736Z,4.70
2023-05-05T00:33:52.947Z,4.70
2023-05-05T00:36:54.987Z,4.65
2023-05-05T00:39:57.967Z,4.64
2023-05-05T00:43:00.054Z,4.58
2023-05-05T00:46:25.047Z,4.54
2023-05-05T00:49:27.251Z,4.46
2023-05-05T00:52:29.837Z,4.42
2023-05-05T00:55:33.513Z,4.37
2023-05-05T00:58:37.170Z,4.41
2023-05-05T01:01:39.260Z,4.43
2023-05-05T01:04:41.381Z,4.39
2023-05-05T01:07:43.459Z,4.32
2023-05-05T01:10:52.638Z,4.30
2023-05-05T01:14:14.416Z,4.22
2023-05-05T01:17:24.699Z,4.25
2023-05-05T01:20:33.476Z,4.21
2023-05-05T01:23:44.069Z,4.19
2023-05-05T01:27:17.401Z,4.19
2023-05-05T01:31:17.491Z,4.17
2023-05-05T01:34:35.809Z,4.14
2023-05-05T01:37:49.931Z,4.12
2023-05-05T01:41:10.247Z,4.09
2023-05-05T01:44:15.727Z,4.09
2023-05-05T01:47:21.378Z,3.87
2023-05-05T01:50:24.925Z,3.86
2023-05-05T01:53:27.817Z,4.03
2023-05-05T01:56:31.789Z,4.09
2023-05-05T01:59:34.496Z,4.07
2023-05-05T02:02:39.556Z,3.90
2023-05-05T02:05:43.763Z,4.10
2023-05-05T02:08:47.406Z,4.13
2023-05-05T02:11:49.768Z,4.17
2023-05-05T02:14:53.451Z,4.15
2023-05-05T02:17:56.824Z,4.14
2023-05-05T02:20:59.187Z,4.14
2023-05-05T02:24:01.557Z,4.17
2023-05-05T02:27:06.328Z,4.23
2023-05-05T02:30:11.417Z,4.25
2023-05-05T02:33:17.832Z,4.22
2023-05-05T02:36:23.154Z,4.21
2023-05-05T02:39:43.880Z,4.22
2023-05-05T02:42:54.789Z,4.26
2023-05-05T02:46:01.193Z,4.26
2023-05-05T02:49:04.719Z,4.20
2023-05-05T02:52:07.423Z,4.18
2023-05-05T02:55:12.838Z,4.17
2023-05-05T02:58:42.792Z,4.14
2023-05-05T03:02:11.457Z,4.18
2023-05-05T03:05:19.916Z,4.19
2023-05-05T03:08:42.383Z,4.18
2023-05-05T03:11:51.169Z,4.16
2023-05-05T03:14:56.295Z,4.14
2023-05-05T03:18:00.615Z,3.94
2023-05-05T03:21:08.855Z,4.17
2023-05-05T03:24:15.910Z,4.05
2023-05-05T03:27:21.636Z,4.12
2023-05-05T03:30:23.661Z,4.08
2023-05-05T03:33:27.466Z,3.96
2023-05-05T03:36:35.249Z,4.06
2023-05-05T03:39:37.843Z,4.03
2023-05-05T03:42:40.989Z,4.01
2023-05-05T03:45:43.123Z,3.95
2023-05-05T03:48:46.286Z,3.92
2023-05-05T03:51:48.378Z,3.89
2023-05-05T03:54:50.889Z,3.86
2023-05-05T03:57:53.611Z,3.86
2023-05-05T04:00:55.613Z,3.89
2023-05-05T04:03:57.982Z,3.93
2023-05-05T04:07:00.050Z,4.01
2023-05-05T04:10:02.207Z,4.02
2023-05-05T04:13:04.418Z,4.02
2023-05-05T04:16:08.916Z,4.02
2023-05-05T04:19:13.349Z,4.04
2023-05-05T04:22:16.024Z,4.09
2023-05-05T04:25:18.364Z,4.12
2023-05-05T04:28:22.018Z,4.15
2023-05-05T04:31:24.702Z,4.17
2023-05-05T04:34:26.837Z,4.19
2023-05-05T04:37:29.603Z,4.22
2023-05-05T04:40:33.373Z,4.32
2023-05-05T04:43:36.258Z,4.25
2023-05-05T04:46:38.456Z,4.42
2023-05-05T04:49:40.664Z,4.47
2023-05-05T04:52:42.857Z,4.54
2023-05-05T04:55:44.842Z,4.61
2023-05-05T04:58:46.833Z,4.66
2023-05-05T05:01:48.900Z,4.66
2023-05-05T05:04:51.033Z,4.68
2023-05-05T05:07:52.981Z,4.73
2023-05-05T05:10:54.924Z,4.78
2023-05-05T05:13:57.812Z,4.80
2023-05-05T05:16:59.796Z,4.84
2023-05-05T05:20:05.111Z,4.88
2023-05-05T05:23:09.061Z,4.95
2023-05-05T05:26:16.805Z,5.00
2023-05-05T05:29:20.640Z,5.02
2023-05-05T05:32:23.714Z,5.05
2023-05-05T05:35:25.999Z,5.06
2023-05-05T05:38:28.234Z,5.11
2023-05-05T05:41:33.864Z,5.19
2023-05-05T05:44:36.205Z,5.28
2023-05-05T05:47:38.305Z,5.38
2023-05-05T05:50:40.393Z,5.48
2023-05-05T05:53:42.453Z,5.59
2023-05-05T05:56:44.695Z,5.76
2023-05-05T05:59:46.974Z,5.87
2023-05-05T06:02:49.240Z,6.02
2023-05-05T06:05:54.220Z,6.18
2023-05-05T06:08:57.484Z,6.42
2023-05-05T06:11:59.755Z,6.60
2023-05-05T06:15:01.763Z,6.87
2023-05-05T06:18:04.765Z,7.14
2023-05-05T06:21:07.068Z,7.48
2023-05-05T06:24:09.104Z,7.76
2023-05-05T06:27:11.302Z,8.01
2023-05-05T06:30:14.922Z,8.24
2023-05-05T06:33:17.091Z,8.51
2023-05-05T06:36:19.138Z,8.86
2023-05-05T06:39:21.175Z,9.22
2023-05-05T06:42:23.309Z,9.59
2023-05-05T06:45:27.333Z,9.93
2023-05-05T06:48:29.294Z,10.24
2023-05-05T06:51:32.031Z,10.52
2023-05-05T06:54:34.298Z,10.76
2023-05-05T06:57:36.403Z,11.10
2023-05-05T07:00:41.331Z,11.38
2023-05-05T07:03:44.177Z,11.67
2023-05-05T07:06:46.493Z,11.95
2023-05-05T07:09:48.452Z,12.26
2023-05-05T07:12:52.169Z,12.52
2023-05-05T07:15:54.412Z,12.72
2023-05-05T07:18:57.099Z,12.95
2023-05-05T07:21:59.139Z,13.06
2023-05-05T07:25:01.234Z,13.21
2023-05-05T07:28:03.914Z,13.40
2023-05-05T07:31:05.968Z,13.62
2023-05-05T07:34:07.953Z,13.78
2023-05-05T07:37:10.072Z,13.89
2023-05-05T07:40:12.849Z,14.06
2023-05-05T07:43:14.843Z,14.13
2023-05-05T07:46:16.894Z,14.24
2023-05-05T07:49:20.229Z,14.15
2023-05-05T07:52:33.180Z,14.24
2023-05-05T07:55:44.347Z,14.18
2023-05-05T07:58:47.023Z,14.39
2023-05-05T08:01:48.986Z,14.48
2023-05-05T08:04:51.086Z,14.59
2023-05-05T08:07:53.153Z,14.57
2023-05-05T08:10:55.172Z,14.83
2023-05-05T08:13:57.215Z,14.99
2023-05-05T08:16:59.316Z,15.10
2023-05-05T08:20:01.340Z,15.21
2023-05-05T08:23:03.401Z,15.15
2023-05-05T08:26:06.736Z,15.35
2023-05-05T08:29:08.690Z,15.45
2023-05-05T08:32:10.772Z,15.51
2023-05-05T08:35:13.434Z,15.63
2023-05-05T08:38:15.765Z,15.48
2023-05-05T08:41:18.981Z,15.72
2023-05-05T08:44:21.113Z,15.81
2023-05-05T08:47:23.161Z,15.97
2023-05-05T08:50:27.998Z,16.02
2023-05-05T08:53:43.755Z,15.90
2023-05-05T08:56:47.627Z,16.15
2023-05-05T08:59:50.280Z,16.18
2023-05-05T09:02:54.912Z,16.28
2023-05-05T09:05:58.156Z,16.33
2023-05-05T09:09:01.594Z,16.19
2023-05-05T09:12:04.121Z,16.19
2023-05-05T09:18:29.896Z,16.40
2023-05-05T09:21:32.751Z,16.30
2023-05-05T09:24:34.733Z,16.11
2023-05-05T09:27:38.710Z,16.25
2023-05-05T09:30:42.453Z,16.41
2023-05-05T09:33:44.652Z,16.47
2023-05-05T09:36:48.344Z,16.63
2023-05-05T09:39:55.664Z,16.67
2023-05-05T09:43:03.919Z,16.68
2023-05-05T09:46:08.043Z,16.83
2023-05-05T09:49:20.356Z,17.18
2023-05-05T09:52:22.647Z,17.00
2023-05-05T09:55:25.265Z,17.05
2023-05-05T09:58:29.292Z,17.11
2023-05-05T10:01:31.542Z,17.25
2023-05-05T10:04:33.523Z,17.32
2023-05-05T10:07:36.415Z,17.42
2023-05-05T10:10:46.354Z,17.33
2023-05-05T10:13:48.770Z,17.10
2023-05-05T10:16:53.820Z,17.19
2023-05-05T10:19:58.302Z,17.35
2023-05-05T10:23:05.589Z,17.55
2023-05-05T10:26:10.779Z,17.50
2023-05-05T10:29:20.557Z,17.46
2023-05-05T10:32:53.972Z,17.60
2023-05-05T10:35:53.779Z,17.83
2023-05-05T10:38:57.971Z,18.04
2023-05-05T10:42:04.507Z,18.26
2023-05-05T10:45:07.721Z,17.70
2023-05-05T10:48:22.967Z,18.13
2023-05-05T10:51:40.135Z,18.36
2023-05-05T10:55:16.901Z,18.52
2023-05-05T10:58:55.428Z,18.54
2023-05-05T11:02:01.110Z,18.23
2023-05-05T11:05:07.242Z,18.36
2023-05-05T11:08:26.631Z,18.52
2023-05-05T11:12:04.812Z,18.60
2023-05-05T11:15:31.614Z,18.84
2023-05-05T11:18:36.742Z,19.12
2023-05-05T11:22:02.090Z,19.07
2023-05-05T11:25:36.465Z,19.06
2023-05-05T11:29:05.087Z,19.29
2023-05-05T11:32:18.179Z,19.26
2023-05-05T11:35:20.191Z,19.42
2023-05-05T11:39:03.140Z,19.58
2023-05-05T11:42:28.855Z,19.45
2023-05-05T11:45:31.630Z,19.59
2023-05-05T11:48:46.367Z,19.55
2023-05-05T11:52:00.188Z,19.70
2023-05-05T11:55:02.247Z,19.27
2023-05-05T11:58:18.487Z,19.33
2023-05-05T12:01:20.556Z,19.54
2023-05-05T12:04:22.747Z,19.47
2023-05-05T12:07:28.163Z,19.37
2023-05-05T12:10:30.768Z,19.60
2023-05-05T12:13:33.021Z,19.63
2023-05-05T12:16:35.168Z,19.99
2023-05-05T12:19:37.406Z,19.92
2023-05-05T12:22:40.005Z,19.79
2023-05-05T12:25:41.966Z,19.99
2023-05-05T12:28:48.427Z,20.08
2023-05-05T12:31:50.988Z,20.04
2023-05-05T12:34:54.787Z,19.98
2023-05-05T12:37:57.138Z,19.99
2023-05-05T12:40:59.054Z,20.20
2023-05-05T12:44:03.295Z,20.00
2023-05-05T12:47:05.726Z,19.92
2023-05-05T12:50:08.449Z,19.87
2023-05-05T12:53:23.019Z,19.80
2023-05-05T12:56:31.269Z,19.95
2023-05-05T12:59:33.337Z,19.89
2023-05-05T13:02:35.526Z,20.13
2023-05-05T13:05:37.658Z,20.03
2023-05-05T13:08:43.664Z,20.03
2023-05-05T13:11:45.824Z,20.01
2023-05-05T13:14:47.917Z,20.09
2023-05-05T13:17:49.901Z,20.20
2023-05-05T13:20:52.137Z,20.39
2023-05-05T13:23:55.967Z,20.52
2023-05-05T13:27:04.601Z,20.51
2023-05-05T13:30:07.454Z,20.30
2023-05-05T13:33:09.509Z,20.29
2023-05-05T13:36:11.733Z,20.36
2023-05-05T13:39:13.870Z,20.36
2023-05-05T13:42:16.009Z,20.48
2023-05-05T13:45:19.818Z,20.57
2023-05-05T13:48:22.678Z,20.41
2023-05-05T13:51:24.704Z,20.31
2023-05-05T13:54:27.204Z,20.29
2023-05-05T13:57:29.214Z,20.34
2023-05-05T14:00:31.845Z,20.30
2023-05-05T14:03:34.135Z,20.34
2023-05-05T14:06:36.376Z,20.33
2023-05-05T14:09:38.358Z,20.29
2023-05-05T14:12:40.598Z,20.35
2023-05-05T14:15:42.832Z,20.45
2023-05-05T14:18:44.834Z,20.37
2023-05-05T14:21:46.882Z,20.51
2023-05-05T14:24:48.916Z,20.60
2023-05-05T14:27:51.108Z,20.42
2023-05-05T14:30:53.127Z,20.24
2023-05-05T14:33:55.176Z,20.24
2023-05-05T14:36:57.370Z,20.28
2023-05-05T14:56:47.252Z,20.53
2023-05-05T14:59:52.141Z,20.49
2023-05-05T15:02:54.226Z,20.26
2023-05-05T15:05:56.637Z,20.12
2023-05-05T15:08:58.753Z,19.97
2023-05-05T15:12:00.848Z,20.02
2023-05-05T15:15:03.257Z,19.79
2023-05-05T15:18:05.810Z,19.69
2023-05-05T15:21:07.750Z,19.59
2023-05-05T15:24:09.795Z,19.51
2023-05-05T15:27:11.852Z,19.49
2023-05-05T15:30:14.303Z,19.37
2023-05-05T15:33:16.812Z,19.28
2023-05-05T15:36:22.844Z,19.16
2023-05-05T15:39:24.891Z,19.42
2023-05-05T15:42:27.117Z,19.30
2023-05-05T15:45:29.164Z,19.30
2023-05-05T15:48:31.571Z,19.53
2023-05-05T15:51:33.615Z,19.34
2023-05-05T15:54:35.778Z,19.33
2023-05-05T15:57:40.038Z,19.10
2023-05-05T16:00:42.012Z,19.10
2023-05-05T16:03:44.117Z,18.95
2023-05-05T16:06:46.120Z,18.75
2023-05-05T16:09:48.070Z,18.54
2023-05-05T16:12:50.178Z,18.41
2023-05-05T16:15:52.213Z,18.34
2023-05-05T16:18:54.258Z,18.29
2023-05-05T16:21:56.811Z,18.19
2023-05-05T16:24:58.875Z,18.06
2023-05-05T16:28:01.889Z,17.99
2023-05-05T16:31:04.032Z,17.95
2023-05-05T16:34:06.935Z,17.85
2023-05-05T16:37:09.024Z,17.77
2023-05-05T16:40:11.883Z,17.70
2023-05-05T16:43:14.023Z,17.66
2023-05-05T16:46:16.105Z,17.52
2023-05-05T16:49:18.756Z,17.54
2023-05-05T16:52:20.733Z,17.48
2023-05-05T16:55:22.780Z,17.36
2023-05-05T16:58:25.005Z,16.65
2023-05-05T17:01:26.999Z,17.07
2023-05-05T17:04:29.034Z,16.96
2023-05-05T17:07:30.971Z,16.86
2023-05-05T17:10:34.051Z,16.73
2023-05-05T17:13:36.114Z,16.63
2023-05-05T17:16:38.794Z,16.46
2023-05-05T17:19:42.694Z,16.27
2023-05-05T17:22:46.753Z,16.07
2023-05-05T17:25:48.793Z,15.94
2023-05-05T17:28:50.822Z,15.83
2023-05-05T17:31:54.295Z,15.68
2023-05-05T17:34:56.580Z,15.58
2023-05-05T17:37:58.714Z,15.43
2023-05-05T17:41:00.665Z,15.28
2023-05-05T17:44:02.641Z,15.09
2023-05-05T17:47:07.827Z,14.93
2023-05-05T17:50:11.289Z,14.82
2023-05-05T17:53:13.249Z,14.71
2023-05-05T17:56:15.410Z,14.63
2023-05-05T17:59:17.552Z,14.46
2023-05-05T18:02:19.837Z,13.92
2023-05-05T18:05:21.993Z,14.19
2023-05-05T18:08:24.132Z,14.08
2023-05-05T18:11:28.976Z,13.82
2023-05-05T18:14:30.996Z,13.72
2023-05-05T18:17:33.004Z,13.54
2023-05-05T18:20:35.330Z,13.39
2023-05-05T18:23:37.318Z,13.29
2023-05-05T18:26:39.450Z,13.20
2023-05-05T18:29:41.786Z,13.10
2023-05-05T18:32:43.878Z,12.98
2023-05-05T18:35:46.016Z,12.83
2023-05-05T18:38:48.079Z,12.78
2023-05-05T18:41:50.360Z,12.73
2023-05-05T18:44:52.319Z,12.57
2023-05-05T18:47:54.353Z,12.57
2023-05-05T18:51:04.139Z,12.47
2023-05-05T18:54:06.207Z,12.39
2023-05-05T18:57:08.468Z,12.22
2023-05-05T19:00:11.126Z,12.12
2023-05-05T19:03:13.243Z,12.25
2023-05-05T19:06:16.211Z,12.11
2023-05-05T19:09:18.260Z,12.09
2023-05-05T19:12:20.279Z,12.17
2023-05-05T19:15:22.323Z,12.11
2023-05-05T19:18:25.046Z,12.06
2023-05-05T19:21:27.888Z,11.92
2023-05-05T19:24:29.982Z,11.93
2023-05-05T19:27:34.201Z,11.89
2023-05-05T19:30:36.404Z,11.85
2023-05-05T19:33:38.558Z,11.81
2023-05-05T19:36:40.606Z,11.76
2023-05-05T19:39:44.524Z,11.70
2023-05-05T19:42:46.642Z,11.61
2023-05-05T19:45:48.673Z,11.52
2023-05-05T19:48:50.785Z,11.52
2023-05-05T19:51:54.464Z,11.49
2023-05-05T19:54:56.484Z,11.38
2023-05-05T19:57:58.575Z,11.37
2023-05-05T20:01:00.834Z,11.36
2023-05-05T20:04:03.923Z,11.32
2023-05-05T20:07:06.008Z,11.24
2023-05-05T20:10:09.612Z,11.20
2023-05-05T20:13:11.924Z,11.23
2023-05-05T20:16:15.044Z,11.21
2023-05-05T20:19:17.233Z,11.18
2023-05-05T20:22:19.300Z,11.13
2023-05-05T20:25:21.704Z,11.13
2023-05-05T20:28:24.106Z,11.13
2023-05-05T20:31:26.341Z,11.10
2023-05-05T20:34:28.478Z,11.08
2023-05-05T20:37:30.717Z,10.99
2023-05-05T20:40:33.861Z,10.94
2023-05-05T20:43:36.927Z,10.92
2023-05-05T20:46:39.024Z,10.99
2023-05-05T20:49:41.314Z,11.00
2023-05-05T20:52:43.387Z,10.95
2023-05-05T20:55:45.515Z,10.93
2023-05-05T20:58:47.575Z,10.96
2023-05-05T21:01:49.686Z,10.89
2023-05-05T21:04:51.754Z,10.84
2023-05-05T21:07:54.797Z,10.83
2023-05-05T21:10:56.837Z,10.81
2023-05-05T21:13:58.989Z,10.72
2023-05-05T21:17:01.321Z,10.68
2023-05-05T21:20:04.177Z,10.46
2023-05-05T21:23:06.206Z,10.56
2023-05-05T21:26:08.295Z,10.49
2023-05-05T21:29:10.922Z,10.45
2023-05-05T21:32:13.204Z,10.47
2023-05-05T21:35:15.336Z,10.40
2023-05-05T21:38:17.371Z,10.35
2023-05-05T21:41:19.509Z,10.27
2023-05-05T21:44:21.576Z,10.27
2023-05-05T21:47:23.653Z,10.26
2023-05-05T21:50:27.553Z,10.23
2023-05-05T21:53:31.050Z,10.20
2023-05-05T21:56:34.293Z,10.18
2023-05-05T21:59:36.321Z,9.91
2023-05-05T22:02:38.381Z,10.13
2023-05-05T22:05:40.469Z,10.12
2023-05-05T22:08:42.579Z,10.12
2023-05-05T22:11:44.581Z,10.09
2023-05-05T22:14:46.628Z,10.04
2023-05-05T22:17:48.626Z,10.02
2023-05-05T22:20:51.490Z,9.98
2023-05-05T22:23:53.467Z,9.95
2023-05-05T22:26:57.468Z,9.94
2023-05-05T22:29:59.708Z,9.92
2023-05-05T22:33:01.772Z,9.92
2023-05-05T22:36:04.044Z,9.88
2023-05-05T22:39:06.641Z,9.84
2023-05-05T22:42:08.760Z,9.80
2023-05-05T22:45:11.568Z,9.76
2023-05-05T22:48:13.917Z,9.75
2023-05-05T22:51:16.621Z,9.75
2023-05-05T22:54:18.627Z,9.73
2023-05-05T22:57:21.142Z,9.54
2023-05-05T23:00:23.260Z,9.74
2023-05-05T23:03:25.311Z,9.75
2023-05-05T23:06:28.140Z,9.78
2023-05-05T23:09:30.240Z,9.77
2023-05-05T23:12:32.318Z,9.75
2023-05-05T23:15:35.389Z,9.72
2023-05-05T23:18:38.087Z,9.68
2023-05-05T23:21:51.994Z,9.67
2023-05-05T23:24:55.233Z,9.60
2023-05-05T23:27:57.221Z,9.56
2023-05-05T23:30:59.380Z,9.57
2023-05-05T23:34:01.435Z,9.43
2023-05-05T23:37:05.900Z,9.57
2023-05-05T23:40:08.930Z,9.57
2023-05-05T23:43:12.223Z,9.56
2023-05-05T23:46:14.358Z,9.56
2023-05-05T23:49:16.427Z,9.61
2023-05-05T23:52:18.534Z,9.65
2023-05-05T23:55:20.736Z,9.65
2023-05-05T23:58:22.697Z,9.64
